Nissos Mykonos — SYJZ — position and weather

sailwx.info

Track history (hours):
 
Tides and Currents Weather Stations Pressure Air Temp Water Temp Dewpoint Dewpoint Depression Visibility Wind Speed Wind Dir Waves Ship Positions

Nissos Mykonos

Last reported at 2017-Apr-28 19:19 UTC. Time now 2017-Apr-29 09:31 UTC.
Position N 37°33' E 025°35'.

Length 141 m; draft 5.2 m.

Type: Passenger vessel. MMSI: 240389000.

Date/timePositionNaut miles runAvg speedWind from/ knotsBaromVisibWave heightAir tempDewpointWater temp
2017-Apr-28 19:19N 37°33' E 025°35'823.3
2017-Apr-28 18:59N 37°32' E 025°26'613.7
2017-Apr-28 18:30N 37°28' E 025°19'4 7.3
2017-Apr-28 18:01N 37°28' E 025°15'1325.0
2017-Apr-28 17:30N 37°26' E 024°59'2 2.7
2017-Apr-28 16:51N 37°26' E 024°57'720.3
2017-Apr-28 16:30N 37°31' E 024°51'3325.1
2017-Apr-28 15:12N 37°33' E 024°10'825.2
2017-Apr-28 14:52N 37°35' E 023°60'2023.2
2017-Apr-28 14:01N 37°46' E 023°39'1020.4
2017-Apr-28 13:30N 37°57' E 023°38'0 0.3
2017-Apr-28 13:00N 37°57' E 023°38'0 0.0
2017-Apr-28 12:30N 37°57' E 023°38'0 0.0
2017-Apr-28 12:00N 37°57' E 023°38'0 0.0
2017-Apr-28 11:30N 37°57' E 023°38'0 0.0
2017-Apr-28 11:00N 37°57' E 023°38'0 0.0
2017-Apr-28 10:30N 37°57' E 023°38'0 0.0
2017-Apr-28 10:00N 37°57' E 023°38'0 0.0
2017-Apr-28 07:15N 37°57' E 023°38'0 0.0
2017-Apr-28 07:00N 37°57' E 023°38'0 0.0
2017-Apr-28 06:30N 37°57' E 023°38'0 0.0
2017-Apr-28 06:00N 37°57' E 023°38'0 0.0
2017-Apr-28 05:30N 37°57' E 023°38'0 0.0
2017-Apr-28 05:00N 37°57' E 023°38'0 0.0
2017-Apr-28 04:30N 37°57' E 023°38'0 0.0
2017-Apr-28 04:00N 37°57' E 023°38'0 0.0
2017-Apr-28 03:30N 37°57' E 023°38'0 0.0
2017-Apr-28 03:00N 37°57' E 023°38'0 0.0
2017-Apr-28 02:30N 37°57' E 023°38'0 0.0
2017-Apr-28 02:00N 37°57' E 023°38'0 0.0
2017-Apr-28 01:30N 37°57' E 023°38'0 0.0
2017-Apr-28 01:00N 37°57' E 023°38'0 0.0
2017-Apr-28 00:30N 37°57' E 023°38'0 0.0
2017-Apr-28 00:00N 37°57' E 023°38'0 0.0
2017-Apr-27 23:30N 37°57' E 023°38'0 0.0
2017-Apr-27 23:00N 37°57' E 023°38'0 0.0
2017-Apr-27 22:30N 37°57' E 023°38'0 0.0
2017-Apr-27 22:00N 37°57' E 023°38'0 0.0
2017-Apr-27 21:30N 37°57' E 023°38'0 0.0
2017-Apr-27 21:00N 37°57' E 023°38'0 0.0
2017-Apr-27 20:30N 37°57' E 023°38'0 0.0
2017-Apr-27 20:00N 37°57' E 023°38'815.9
2017-Apr-27 19:31N 37°49' E 023°41'1122.4
2017-Apr-27 19:01N 37°40' E 023°50'1323.5
2017-Apr-27 18:27N 37°35' E 024°05'2722.8
2017-Apr-27 17:17N 37°31' E 024°38'724.4
2017-Apr-27 17:01N 37°31' E 024°46'1019.6
2017-Apr-27 16:30N 37°26' E 024°57'1 1.6
2017-Apr-27 16:01N 37°26' E 024°58'1325.6
2017-Apr-27 15:30N 37°27' E 025°14'4 7.9
2017-Apr-27 15:01N 37°28' E 025°19'2120.2
2017-Apr-27 13:59N 37°31' E 025°45'149 9.0
2017-Apr-26 21:28N 39°55' E 024°60'1123.3
2017-Apr-26 21:01N 40°05' E 024°53'1223.3
2017-Apr-26 20:31N 40°15' E 024°46'1223.5
2017-Apr-26 20:00N 40°25' E 024°38'1223.4
2017-Apr-26 19:31N 40°36' E 024°31'1122.6
2017-Apr-26 19:01N 40°47' E 024°29'1019.5
2017-Apr-26 18:30N 40°56' E 024°25'0 0.0
2017-Apr-26 18:00N 40°56' E 024°25'0 0.0
2017-Apr-26 17:31N 40°56' E 024°25'0 0.0
2017-Apr-26 17:00N 40°56' E 024°25'0 0.0
2017-Apr-26 16:30N 40°56' E 024°25'0 0.0
2017-Apr-26 16:00N 40°56' E 024°25'1 2.1
2017-Apr-26 15:31N 40°55' E 024°24'1223.5
2017-Apr-26 15:01N 40°43' E 024°27'1223.6
2017-Apr-26 14:31N 40°32' E 024°32'19310.3
2017-Apr-25 19:47N 37°30' E 025°55'1523.1
2017-Apr-25 19:08N 37°30' E 025°36'323.6
2017-Apr-25 19:00N 37°30' E 025°33'1223.1
2017-Apr-25 18:30N 37°30' E 025°18'2 4.5
2017-Apr-25 18:00N 37°28' E 025°18'1424.6
2017-Apr-25 17:25N 37°26' E 025°00'3 7.4
2017-Apr-25 17:01N 37°26' E 024°57'5 9.9
2017-Apr-25 16:31N 37°31' E 024°56'5222.4
2017-Apr-25 14:11N 37°37' E 023°50'1421.2
2017-Apr-25 13:31N 37°48' E 023°38'917.0
2017-Apr-25 13:00N 37°57' E 023°38'0 0.0
2017-Apr-25 12:30N 37°57' E 023°38'0 0.0
2017-Apr-25 12:00N 37°57' E 023°38'0 0.0
2017-Apr-25 11:30N 37°57' E 023°38'0 0.0
2017-Apr-25 11:00N 37°57' E 023°38'0 0.0
2017-Apr-25 10:30N 37°57' E 023°38'0 0.0
2017-Apr-25 10:00N 37°57' E 023°38'1 1.5
2017-Apr-25 09:30N 37°56' E 023°37'1019.9
2017-Apr-25 09:01N 37°47' E 023°42'5122.1
2017-Apr-25 06:41N 37°31' E 024°44'423.4
2017-Apr-25 06:31N 37°31' E 024°49'811.5
2017-Apr-25 05:51N 37°26' E 024°57'617.1
2017-Apr-25 05:31N 37°27' E 025°04'1224.8
2017-Apr-25 05:00N 37°28' E 025°19'3 6.7
2017-Apr-25 04:30N 37°31' E 025°22'1225.3
2017-Apr-25 04:01N 37°34' E 025°37'1325.4
2017-Apr-25 03:30N 37°37' E 025°52'13 1.5
2017-Apr-24 19:10N 37°34' E 025°36'422.7
2017-Apr-24 19:00N 37°33' E 025°32'1122.5
2017-Apr-24 18:30N 37°30' E 025°18'2 4.2
2017-Apr-24 18:01N 37°28' E 025°18'1224.1
2017-Apr-24 17:31N 37°27' E 025°03'5 8.7
2017-Apr-24 16:54N 37°26' E 024°57'613.6
2017-Apr-24 16:27N 37°31' E 024°52'5021.9
2017-Apr-24 14:12N 37°38' E 023°50'1420.8
2017-Apr-24 13:30N 37°48' E 023°38'816.8
2017-Apr-24 13:00N 37°57' E 023°38'0 0.0
2017-Apr-24 12:30N 37°57' E 023°38'0 0.0
2017-Apr-24 12:00N 37°57' E 023°38'0 0.0
2017-Apr-24 11:30N 37°57' E 023°38'0 0.0
2017-Apr-24 11:00N 37°57' E 023°38'0 0.0
2017-Apr-24 10:30N 37°57' E 023°38'0 0.0
2017-Apr-24 10:00N 37°57' E 023°38'0 0.0
2017-Apr-24 09:30N 37°57' E 023°38'0 0.0
2017-Apr-24 09:00N 37°57' E 023°38'0 0.0
2017-Apr-24 07:13N 37°57' E 023°38'0 0.0
2017-Apr-24 07:00N 37°57' E 023°38'0 0.0
2017-Apr-24 06:30N 37°57' E 023°38'0 0.0
2017-Apr-24 06:00N 37°57' E 023°38'0 0.0
2017-Apr-24 05:30N 37°57' E 023°38'0 0.0
2017-Apr-24 05:00N 37°57' E 023°38'0 0.0
2017-Apr-24 04:30N 37°57' E 023°38'0 0.0
2017-Apr-24 04:00N 37°57' E 023°38'0 0.0
2017-Apr-24 03:30N 37°57' E 023°38'0 0.0
2017-Apr-24 03:00N 37°57' E 023°38'0 0.0
2017-Apr-24 02:30N 37°57' E 023°38'0 0.0
2017-Apr-24 02:00N 37°57' E 023°38'0 0.0
2017-Apr-24 01:30N 37°57' E 023°38'0 0.0
2017-Apr-24 01:00N 37°57' E 023°38'0 0.0
2017-Apr-24 00:30N 37°57' E 023°38'0 0.0
2017-Apr-24 00:00N 37°57' E 023°38'0 0.0
2017-Apr-23 23:30N 37°57' E 023°38'0 0.0
2017-Apr-23 23:00N 37°57' E 023°38'0 0.0
2017-Apr-23 22:30N 37°57' E 023°38'0 0.0
2017-Apr-23 22:00N 37°57' E 023°38'0 0.0
2017-Apr-23 21:30N 37°57' E 023°38'0 0.0
2017-Apr-23 21:00N 37°57' E 023°38'1 1.8
2017-Apr-23 20:31N 37°56' E 023°37'1223.4
2017-Apr-23 20:00N 37°45' E 023°43'1224.5
2017-Apr-23 19:30N 37°38' E 023°56'1325.5
2017-Apr-23 19:00N 37°33' E 024°11'2625.0
2017-Apr-23 17:57N 37°31' E 024°44'1124.5
2017-Apr-23 17:31N 37°29' E 024°57'3 6.7
2017-Apr-23 17:01N 37°26' E 024°59'1325.6
2017-Apr-23 16:31N 37°27' E 025°15'4 7.4
2017-Apr-23 16:01N 37°28' E 025°19'1019.7
2017-Apr-23 15:31N 37°32' E 025°30'1425.3
2017-Apr-23 14:56N 37°35' E 025°48'154 8.6
2017-Apr-22 21:08N 40°03' E 024°54'423.3
2017-Apr-22 20:58N 40°07' E 024°51'1123.0
2017-Apr-22 20:30N 40°16' E 024°44'1122.9
2017-Apr-22 20:00N 40°26' E 024°37'1222.8
2017-Apr-22 19:30N 40°36' E 024°30'1122.5
2017-Apr-22 19:01N 40°47' E 024°27'918.1
2017-Apr-22 18:30N 40°56' E 024°25'0 0.0
2017-Apr-22 17:59N 40°56' E 024°25'0 0.0
2017-Apr-22 17:23N 40°56' E 024°25'0 0.0
2017-Apr-22 17:00N 40°56' E 024°25'0 0.0
2017-Apr-22 16:30N 40°56' E 024°25'0 0.0
2017-Apr-22 15:53N 40°56' E 024°25'3 7.3
2017-Apr-22 15:30N 40°53' E 024°25'1223.2
2017-Apr-22 15:00N 40°42' E 024°27'1223.5
2017-Apr-22 14:31N 40°31' E 024°33'183 9.5
2017-Apr-21 19:07N 37°34' E 025°36'322.9
2017-Apr-21 19:00N 37°33' E 025°32'1122.6
2017-Apr-21 18:31N 37°30' E 025°19'3 5.1
2017-Apr-21 18:00N 37°28' E 025°19'1224.0
2017-Apr-21 17:31N 37°27' E 025°04'611.1
2017-Apr-21 17:00N 37°26' E 024°57'611.2
2017-Apr-21 16:28N 37°31' E 024°52'5022.1
2017-Apr-21 14:12N 37°38' E 023°50'1521.4
2017-Apr-21 13:31N 37°49' E 023°37'815.7
2017-Apr-21 13:01N 37°57' E 023°38'0 0.0
2017-Apr-21 12:31N 37°57' E 023°38'0 0.0
2017-Apr-21 12:01N 37°57' E 023°38'0 0.0
2017-Apr-21 11:31N 37°57' E 023°38'0 0.0
2017-Apr-21 11:01N 37°57' E 023°38'0 0.0
2017-Apr-21 10:30N 37°57' E 023°38'0 0.0
2017-Apr-21 10:00N 37°57' E 023°38'0 0.0
2017-Apr-21 09:30N 37°57' E 023°38'0 0.0
2017-Apr-21 09:00N 37°57' E 023°38'0 0.0
2017-Apr-21 08:30N 37°57' E 023°38'0 0.0
2017-Apr-21 08:01N 37°57' E 023°38'0 0.0
2017-Apr-21 07:30N 37°57' E 023°38'0 0.0
2017-Apr-21 07:01N 37°57' E 023°38'0 0.0
2017-Apr-21 06:31N 37°57' E 023°38'0 0.0
2017-Apr-21 06:01N 37°57' E 023°38'0 0.0
2017-Apr-21 05:31N 37°57' E 023°38'0 0.0
2017-Apr-21 05:01N 37°57' E 023°38'0 0.0
2017-Apr-21 04:30N 37°57' E 023°38'0 0.0
2017-Apr-21 04:00N 37°57' E 023°38'0 0.0
2017-Apr-21 03:30N 37°57' E 023°38'0 0.0
2017-Apr-21 03:01N 37°57' E 023°38'0 0.0
2017-Apr-21 02:30N 37°57' E 023°38'0 0.0
2017-Apr-21 02:01N 37°57' E 023°38'0 0.0
2017-Apr-21 01:31N 37°57' E 023°38'0 0.0
2017-Apr-21 01:01N 37°57' E 023°38'0 0.0
2017-Apr-21 00:30N 37°57' E 023°38'0 0.0
2017-Apr-21 00:01N 37°57' E 023°38'0 0.0
2017-Apr-20 23:31N 37°57' E 023°38'0 0.0
2017-Apr-20 23:01N 37°57' E 023°38'0 0.0
2017-Apr-20 22:30N 37°57' E 023°38'0 0.0
2017-Apr-20 22:01N 37°57' E 023°38'0 0.0
2017-Apr-20 21:31N 37°57' E 023°38'0 0.0
2017-Apr-20 21:01N 37°57' E 023°38'0 0.0
2017-Apr-20 20:31N 37°57' E 023°38'0 0.1
2017-Apr-20 20:01N 37°57' E 023°38'816.4
2017-Apr-20 19:31N 37°49' E 023°41'1121.9
2017-Apr-20 19:00N 37°40' E 023°50'4422.9
2017-Apr-20 17:06N 37°31' E 024°44'223.4
2017-Apr-20 17:00N 37°31' E 024°46'1019.5
2017-Apr-20 16:30N 37°27' E 024°57'4 7.1
2017-Apr-20 15:58N 37°27' E 025°02'1225.3
2017-Apr-20 15:29N 37°28' E 025°17'3 5.7
2017-Apr-20 15:01N 37°30' E 025°19'1224.5
2017-Apr-20 14:31N 37°30' E 025°34'152 8.8
2017-Apr-19 21:19N 39°59' E 024°57'722.4
2017-Apr-19 21:00N 40°06' E 024°52'1122.5
2017-Apr-19 20:30N 40°16' E 024°45'1122.4
2017-Apr-19 20:01N 40°25' E 024°38'1122.8
2017-Apr-19 19:31N 40°35' E 024°31'1122.1
2017-Apr-19 19:01N 40°46' E 024°27'1019.4
2017-Apr-19 18:29N 40°56' E 024°25'0 0.0
2017-Apr-19 18:00N 40°56' E 024°25'0 0.0
2017-Apr-19 17:30N 40°56' E 024°25'0 0.0
2017-Apr-19 17:00N 40°56' E 024°25'0 0.0
2017-Apr-19 16:30N 40°56' E 024°25'0 0.0
2017-Apr-19 15:59N 40°56' E 024°25'0 0.0
2017-Apr-19 15:30N 40°56' E 024°25'0 0.0
2017-Apr-19 15:01N 40°56' E 024°25'0 0.0
2017-Apr-19 14:30N 40°56' E 024°25'0 0.0
2017-Apr-19 13:30N 40°56' E 024°25'0 0.0
2017-Apr-19 13:01N 40°56' E 024°25'0 0.0
2017-Apr-19 12:30N 40°56' E 024°25'0 0.0
2017-Apr-19 12:00N 40°56' E 024°25'0 0.0
2017-Apr-19 11:31N 40°56' E 024°25'0 0.0
2017-Apr-19 11:01N 40°56' E 024°25'0 0.0
2017-Apr-19 10:30N 40°56' E 024°25'0 0.0
2017-Apr-19 10:00N 40°56' E 024°25'0 0.0
2017-Apr-19 09:30N 40°56' E 024°25'0 0.0
2017-Apr-19 09:01N 40°56' E 024°25'0 0.0
2017-Apr-19 08:30N 40°56' E 024°25'0 0.0
2017-Apr-19 08:00N 40°56' E 024°25'0 0.0
2017-Apr-19 07:30N 40°56' E 024°25'0 0.0
2017-Apr-19 07:00N 40°56' E 024°25'0 0.0
2017-Apr-19 06:30N 40°56' E 024°25'0 0.0
2017-Apr-19 06:00N 40°56' E 024°25'0 0.0
2017-Apr-19 05:30N 40°56' E 024°25'2 4.0
2017-Apr-19 05:01N 40°54' E 024°24'1223.5
2017-Apr-19 04:30N 40°42' E 024°28'1223.4
2017-Apr-19 04:00N 40°31' E 024°32'1223.7
2017-Apr-19 03:30N 40°20' E 024°39'1223.7
2017-Apr-19 03:00N 40°10' E 024°47'  
Track history (hours):
 
Tides and Currents Weather Stations Pressure Air Temp Water Temp Dewpoint Dewpoint Depression Visibility Wind Speed Wind Dir Waves Ship Positions

Nissos Mykonos

Last reported at 2017-Apr-28 19:19 UTC. Time now 2017-Apr-29 09:31 UTC.
Position N 37°33' E 025°35'.

Length 141 m; draft 5.2 m.

Type: Passenger vessel. MMSI: 240389000.

Date/timePositionNaut miles runAvg speedWind from/ knotsBaromVisibWave heightAir tempDewpointWater temp
2017-Apr-28 19:19N 37°33' E 025°35'823.3
2017-Apr-28 18:59N 37°32' E 025°26'613.7
2017-Apr-28 18:30N 37°28' E 025°19'4 7.3
2017-Apr-28 18:01N 37°28' E 025°15'1325.0
2017-Apr-28 17:30N 37°26' E 024°59'2 2.7
2017-Apr-28 16:51N 37°26' E 024°57'720.3
2017-Apr-28 16:30N 37°31' E 024°51'3325.1
2017-Apr-28 15:12N 37°33' E 024°10'825.2
2017-Apr-28 14:52N 37°35' E 023°60'2023.2
2017-Apr-28 14:01N 37°46' E 023°39'1020.4
2017-Apr-28 13:30N 37°57' E 023°38'0 0.3
2017-Apr-28 13:00N 37°57' E 023°38'0 0.0
2017-Apr-28 12:30N 37°57' E 023°38'0 0.0
2017-Apr-28 12:00N 37°57' E 023°38'0 0.0
2017-Apr-28 11:30N 37°57' E 023°38'0 0.0
2017-Apr-28 11:00N 37°57' E 023°38'0 0.0
2017-Apr-28 10:30N 37°57' E 023°38'0 0.0
2017-Apr-28 10:00N 37°57' E 023°38'0 0.0
2017-Apr-28 07:15N 37°57' E 023°38'0 0.0
2017-Apr-28 07:00N 37°57' E 023°38'0 0.0
2017-Apr-28 06:30N 37°57' E 023°38'0 0.0
2017-Apr-28 06:00N 37°57' E 023°38'0 0.0
2017-Apr-28 05:30N 37°57' E 023°38'0 0.0
2017-Apr-28 05:00N 37°57' E 023°38'0 0.0
2017-Apr-28 04:30N 37°57' E 023°38'0 0.0
2017-Apr-28 04:00N 37°57' E 023°38'0 0.0
2017-Apr-28 03:30N 37°57' E 023°38'0 0.0
2017-Apr-28 03:00N 37°57' E 023°38'0 0.0
2017-Apr-28 02:30N 37°57' E 023°38'0 0.0
2017-Apr-28 02:00N 37°57' E 023°38'0 0.0
2017-Apr-28 01:30N 37°57' E 023°38'0 0.0
2017-Apr-28 01:00N 37°57' E 023°38'0 0.0
2017-Apr-28 00:30N 37°57' E 023°38'0 0.0
2017-Apr-28 00:00N 37°57' E 023°38'0 0.0
2017-Apr-27 23:30N 37°57' E 023°38'0 0.0
2017-Apr-27 23:00N 37°57' E 023°38'0 0.0
2017-Apr-27 22:30N 37°57' E 023°38'0 0.0
2017-Apr-27 22:00N 37°57' E 023°38'0 0.0
2017-Apr-27 21:30N 37°57' E 023°38'0 0.0
2017-Apr-27 21:00N 37°57' E 023°38'0 0.0
2017-Apr-27 20:30N 37°57' E 023°38'0 0.0
2017-Apr-27 20:00N 37°57' E 023°38'815.9
2017-Apr-27 19:31N 37°49' E 023°41'1122.4
2017-Apr-27 19:01N 37°40' E 023°50'1323.5
2017-Apr-27 18:27N 37°35' E 024°05'2722.8
2017-Apr-27 17:17N 37°31' E 024°38'724.4
2017-Apr-27 17:01N 37°31' E 024°46'1019.6
2017-Apr-27 16:30N 37°26' E 024°57'1 1.6
2017-Apr-27 16:01N 37°26' E 024°58'1325.6
2017-Apr-27 15:30N 37°27' E 025°14'4 7.9
2017-Apr-27 15:01N 37°28' E 025°19'2120.2
2017-Apr-27 13:59N 37°31' E 025°45'149 9.0
2017-Apr-26 21:28N 39°55' E 024°60'1123.3
2017-Apr-26 21:01N 40°05' E 024°53'1223.3
2017-Apr-26 20:31N 40°15' E 024°46'1223.5
2017-Apr-26 20:00N 40°25' E 024°38'1223.4
2017-Apr-26 19:31N 40°36' E 024°31'1122.6
2017-Apr-26 19:01N 40°47' E 024°29'1019.5
2017-Apr-26 18:30N 40°56' E 024°25'0 0.0
2017-Apr-26 18:00N 40°56' E 024°25'0 0.0
2017-Apr-26 17:31N 40°56' E 024°25'0 0.0
2017-Apr-26 17:00N 40°56' E 024°25'0 0.0
2017-Apr-26 16:30N 40°56' E 024°25'0 0.0
2017-Apr-26 16:00N 40°56' E 024°25'1 2.1
2017-Apr-26 15:31N 40°55' E 024°24'1223.5
2017-Apr-26 15:01N 40°43' E 024°27'1223.6
2017-Apr-26 14:31N 40°32' E 024°32'19310.3
2017-Apr-25 19:47N 37°30' E 025°55'1523.1
2017-Apr-25 19:08N 37°30' E 025°36'323.6
2017-Apr-25 19:00N 37°30' E 025°33'1223.1
2017-Apr-25 18:30N 37°30' E 025°18'2 4.5
2017-Apr-25 18:00N 37°28' E 025°18'1424.6
2017-Apr-25 17:25N 37°26' E 025°00'3 7.4
2017-Apr-25 17:01N 37°26' E 024°57'5 9.9
2017-Apr-25 16:31N 37°31' E 024°56'5222.4
2017-Apr-25 14:11N 37°37' E 023°50'1421.2
2017-Apr-25 13:31N 37°48' E 023°38'917.0
2017-Apr-25 13:00N 37°57' E 023°38'0 0.0
2017-Apr-25 12:30N 37°57' E 023°38'0 0.0
2017-Apr-25 12:00N 37°57' E 023°38'0 0.0
2017-Apr-25 11:30N 37°57' E 023°38'0 0.0
2017-Apr-25 11:00N 37°57' E 023°38'0 0.0
2017-Apr-25 10:30N 37°57' E 023°38'0 0.0
2017-Apr-25 10:00N 37°57' E 023°38'1 1.5
2017-Apr-25 09:30N 37°56' E 023°37'1019.9
2017-Apr-25 09:01N 37°47' E 023°42'5122.1
2017-Apr-25 06:41N 37°31' E 024°44'423.4
2017-Apr-25 06:31N 37°31' E 024°49'811.5
2017-Apr-25 05:51N 37°26' E 024°57'617.1
2017-Apr-25 05:31N 37°27' E 025°04'1224.8
2017-Apr-25 05:00N 37°28' E 025°19'3 6.7
2017-Apr-25 04:30N 37°31' E 025°22'1225.3
2017-Apr-25 04:01N 37°34' E 025°37'1325.4
2017-Apr-25 03:30N 37°37' E 025°52'13 1.5
2017-Apr-24 19:10N 37°34' E 025°36'422.7
2017-Apr-24 19:00N 37°33' E 025°32'1122.5
2017-Apr-24 18:30N 37°30' E 025°18'2 4.2
2017-Apr-24 18:01N 37°28' E 025°18'1224.1
2017-Apr-24 17:31N 37°27' E 025°03'5 8.7
2017-Apr-24 16:54N 37°26' E 024°57'613.6
2017-Apr-24 16:27N 37°31' E 024°52'5021.9
2017-Apr-24 14:12N 37°38' E 023°50'1420.8
2017-Apr-24 13:30N 37°48' E 023°38'816.8
2017-Apr-24 13:00N 37°57' E 023°38'0 0.0
2017-Apr-24 12:30N 37°57' E 023°38'0 0.0
2017-Apr-24 12:00N 37°57' E 023°38'0 0.0
2017-Apr-24 11:30N 37°57' E 023°38'0 0.0
2017-Apr-24 11:00N 37°57' E 023°38'0 0.0
2017-Apr-24 10:30N 37°57' E 023°38'0 0.0
2017-Apr-24 10:00N 37°57' E 023°38'0 0.0
2017-Apr-24 09:30N 37°57' E 023°38'0 0.0
2017-Apr-24 09:00N 37°57' E 023°38'0 0.0
2017-Apr-24 07:13N 37°57' E 023°38'0 0.0
2017-Apr-24 07:00N 37°57' E 023°38'0 0.0
2017-Apr-24 06:30N 37°57' E 023°38'0 0.0
2017-Apr-24 06:00N 37°57' E 023°38'0 0.0
2017-Apr-24 05:30N 37°57' E 023°38'0 0.0
2017-Apr-24 05:00N 37°57' E 023°38'0 0.0
2017-Apr-24 04:30N 37°57' E 023°38'0 0.0
2017-Apr-24 04:00N 37°57' E 023°38'0 0.0
2017-Apr-24 03:30N 37°57' E 023°38'0 0.0
2017-Apr-24 03:00N 37°57' E 023°38'0 0.0
2017-Apr-24 02:30N 37°57' E 023°38'0 0.0
2017-Apr-24 02:00N 37°57' E 023°38'0 0.0
2017-Apr-24 01:30N 37°57' E 023°38'0 0.0
2017-Apr-24 01:00N 37°57' E 023°38'0 0.0
2017-Apr-24 00:30N 37°57' E 023°38'0 0.0
2017-Apr-24 00:00N 37°57' E 023°38'0 0.0
2017-Apr-23 23:30N 37°57' E 023°38'0 0.0
2017-Apr-23 23:00N 37°57' E 023°38'0 0.0
2017-Apr-23 22:30N 37°57' E 023°38'0 0.0
2017-Apr-23 22:00N 37°57' E 023°38'0 0.0
2017-Apr-23 21:30N 37°57' E 023°38'0 0.0
2017-Apr-23 21:00N 37°57' E 023°38'1 1.8
2017-Apr-23 20:31N 37°56' E 023°37'1223.4
2017-Apr-23 20:00N 37°45' E 023°43'1224.5
2017-Apr-23 19:30N 37°38' E 023°56'1325.5
2017-Apr-23 19:00N 37°33' E 024°11'2625.0
2017-Apr-23 17:57N 37°31' E 024°44'1124.5
2017-Apr-23 17:31N 37°29' E 024°57'3 6.7
2017-Apr-23 17:01N 37°26' E 024°59'1325.6
2017-Apr-23 16:31N 37°27' E 025°15'4 7.4
2017-Apr-23 16:01N 37°28' E 025°19'1019.7
2017-Apr-23 15:31N 37°32' E 025°30'1425.3
2017-Apr-23 14:56N 37°35' E 025°48'154 8.6
2017-Apr-22 21:08N 40°03' E 024°54'423.3
2017-Apr-22 20:58N 40°07' E 024°51'1123.0
2017-Apr-22 20:30N 40°16' E 024°44'1122.9
2017-Apr-22 20:00N 40°26' E 024°37'1222.8
2017-Apr-22 19:30N 40°36' E 024°30'1122.5
2017-Apr-22 19:01N 40°47' E 024°27'918.1
2017-Apr-22 18:30N 40°56' E 024°25'0 0.0
2017-Apr-22 17:59N 40°56' E 024°25'0 0.0
2017-Apr-22 17:23N 40°56' E 024°25'0 0.0
2017-Apr-22 17:00N 40°56' E 024°25'0 0.0
2017-Apr-22 16:30N 40°56' E 024°25'0 0.0
2017-Apr-22 15:53N 40°56' E 024°25'3 7.3
2017-Apr-22 15:30N 40°53' E 024°25'1223.2
2017-Apr-22 15:00N 40°42' E 024°27'1223.5
2017-Apr-22 14:31N 40°31' E 024°33'183 9.5
2017-Apr-21 19:07N 37°34' E 025°36'322.9
2017-Apr-21 19:00N 37°33' E 025°32'1122.6
2017-Apr-21 18:31N 37°30' E 025°19'3 5.1
2017-Apr-21 18:00N 37°28' E 025°19'1224.0
2017-Apr-21 17:31N 37°27' E 025°04'611.1
2017-Apr-21 17:00N 37°26' E 024°57'611.2
2017-Apr-21 16:28N 37°31' E 024°52'5022.1
2017-Apr-21 14:12N 37°38' E 023°50'1521.4
2017-Apr-21 13:31N 37°49' E 023°37'815.7
2017-Apr-21 13:01N 37°57' E 023°38'0 0.0
2017-Apr-21 12:31N 37°57' E 023°38'0 0.0
2017-Apr-21 12:01N 37°57' E 023°38'0 0.0
2017-Apr-21 11:31N 37°57' E 023°38'0 0.0
2017-Apr-21 11:01N 37°57' E 023°38'0 0.0
2017-Apr-21 10:30N 37°57' E 023°38'0 0.0
2017-Apr-21 10:00N 37°57' E 023°38'0 0.0
2017-Apr-21 09:30N 37°57' E 023°38'0 0.0
2017-Apr-21 09:00N 37°57' E 023°38'0 0.0
2017-Apr-21 08:30N 37°57' E 023°38'0 0.0
2017-Apr-21 08:01N 37°57' E 023°38'0 0.0
2017-Apr-21 07:30N 37°57' E 023°38'0 0.0
2017-Apr-21 07:01N 37°57' E 023°38'0 0.0
2017-Apr-21 06:31N 37°57' E 023°38'0 0.0
2017-Apr-21 06:01N 37°57' E 023°38'0 0.0
2017-Apr-21 05:31N 37°57' E 023°38'0 0.0
2017-Apr-21 05:01N 37°57' E 023°38'0 0.0
2017-Apr-21 04:30N 37°57' E 023°38'0 0.0
2017-Apr-21 04:00N 37°57' E 023°38'0 0.0
2017-Apr-21 03:30N 37°57' E 023°38'0 0.0
2017-Apr-21 03:01N 37°57' E 023°38'0 0.0
2017-Apr-21 02:30N 37°57' E 023°38'0 0.0
2017-Apr-21 02:01N 37°57' E 023°38'0 0.0
2017-Apr-21 01:31N 37°57' E 023°38'0 0.0
2017-Apr-21 01:01N 37°57' E 023°38'0 0.0
2017-Apr-21 00:30N 37°57' E 023°38'0 0.0
2017-Apr-21 00:01N 37°57' E 023°38'0 0.0
2017-Apr-20 23:31N 37°57' E 023°38'0 0.0
2017-Apr-20 23:01N 37°57' E 023°38'0 0.0
2017-Apr-20 22:30N 37°57' E 023°38'0 0.0
2017-Apr-20 22:01N 37°57' E 023°38'0 0.0
2017-Apr-20 21:31N 37°57' E 023°38'0 0.0
2017-Apr-20 21:01N 37°57' E 023°38'0 0.0
2017-Apr-20 20:31N 37°57' E 023°38'0 0.1
2017-Apr-20 20:01N 37°57' E 023°38'816.4
2017-Apr-20 19:31N 37°49' E 023°41'1121.9
2017-Apr-20 19:00N 37°40' E 023°50'4422.9
2017-Apr-20 17:06N 37°31' E 024°44'223.4
2017-Apr-20 17:00N 37°31' E 024°46'1019.5
2017-Apr-20 16:30N 37°27' E 024°57'4 7.1
2017-Apr-20 15:58N 37°27' E 025°02'1225.3
2017-Apr-20 15:29N 37°28' E 025°17'3 5.7
2017-Apr-20 15:01N 37°30' E 025°19'1224.5
2017-Apr-20 14:31N 37°30' E 025°34'152 8.8
2017-Apr-19 21:19N 39°59' E 024°57'722.4
2017-Apr-19 21:00N 40°06' E 024°52'1122.5
2017-Apr-19 20:30N 40°16' E 024°45'1122.4
2017-Apr-19 20:01N 40°25' E 024°38'1122.8
2017-Apr-19 19:31N 40°35' E 024°31'1122.1
2017-Apr-19 19:01N 40°46' E 024°27'1019.4
2017-Apr-19 18:29N 40°56' E 024°25'0 0.0
2017-Apr-19 18:00N 40°56' E 024°25'0 0.0
2017-Apr-19 17:30N 40°56' E 024°25'0 0.0
2017-Apr-19 17:00N 40°56' E 024°25'0 0.0
2017-Apr-19 16:30N 40°56' E 024°25'0 0.0
2017-Apr-19 15:59N 40°56' E 024°25'0 0.0
2017-Apr-19 15:30N 40°56' E 024°25'0 0.0
2017-Apr-19 15:01N 40°56' E 024°25'0 0.0
2017-Apr-19 14:30N 40°56' E 024°25'0 0.0
2017-Apr-19 13:30N 40°56' E 024°25'0 0.0
2017-Apr-19 13:01N 40°56' E 024°25'0 0.0
2017-Apr-19 12:30N 40°56' E 024°25'0 0.0
2017-Apr-19 12:00N 40°56' E 024°25'0 0.0
2017-Apr-19 11:31N 40°56' E 024°25'0 0.0
2017-Apr-19 11:01N 40°56' E 024°25'0 0.0
2017-Apr-19 10:30N 40°56' E 024°25'0 0.0
2017-Apr-19 10:00N 40°56' E 024°25'0 0.0
2017-Apr-19 09:30N 40°56' E 024°25'0 0.0
2017-Apr-19 09:01N 40°56' E 024°25'0 0.0
2017-Apr-19 08:30N 40°56' E 024°25'0 0.0
2017-Apr-19 08:00N 40°56' E 024°25'0 0.0
2017-Apr-19 07:30N 40°56' E 024°25'0 0.0
2017-Apr-19 07:00N 40°56' E 024°25'0 0.0
2017-Apr-19 06:30N 40°56' E 024°25'0 0.0
2017-Apr-19 06:00N 40°56' E 024°25'0 0.0
2017-Apr-19 05:30N 40°56' E 024°25'2 4.0
2017-Apr-19 05:01N 40°54' E 024°24'1223.5
2017-Apr-19 04:30N 40°42' E 024°28'1223.4
2017-Apr-19 04:00N 40°31' E 024°32'1223.7
2017-Apr-19 03:30N 40°20' E 024°39'1223.7
2017-Apr-19 03:00N 40°10' E 024°47'  

Dump ship's entire track history